createdAt,value
2019-01-25T00:00:41.375Z,101721.70
2019-01-25T00:03:11.774Z,101723.25
2019-01-25T00:05:42.128Z,101723.25
2019-01-25T00:08:12.567Z,101725.14
2019-01-25T00:10:43.130Z,101727.30
2019-01-25T00:13:13.750Z,101727.09
2019-01-25T00:15:44.271Z,101732.09
2019-01-25T00:18:14.691Z,101726.98
2019-01-25T00:20:44.932Z,101717.61
2019-01-25T00:23:15.299Z,101721.58
2019-01-25T00:25:45.889Z,101718.89
2019-01-25T00:28:16.474Z,101725.02
2019-01-25T00:30:46.836Z,101723.25
2019-01-25T00:33:17.183Z,101725.30
2019-01-25T00:35:47.608Z,101727.25
2019-01-25T00:38:18.450Z,101730.09
2019-01-25T00:40:48.882Z,101727.19
2019-01-25T00:43:19.421Z,101726.58
2019-01-25T00:45:50.054Z,101722.25
2019-01-25T00:48:20.607Z,101718.41
2019-01-25T00:50:50.929Z,101715.45
2019-01-25T00:53:21.411Z,101719.17
2019-01-25T00:55:51.937Z,101723.53
2019-01-25T00:58:22.501Z,101728.66
2019-01-25T01:00:53.062Z,101725.70
2019-01-25T01:03:23.606Z,101723.62
2019-01-25T01:05:54.216Z,101712.50
2019-01-25T01:08:24.566Z,101724.02
2019-01-25T01:10:55.227Z,101726.98
2019-01-25T01:13:25.873Z,101717.89
2019-01-25T01:15:56.625Z,101722.53
2019-01-25T01:18:27.197Z,101725.97
2019-01-25T01:20:57.572Z,101736.22
2019-01-25T01:23:27.885Z,101732.38
2019-01-25T01:25:58.266Z,101728.32
2019-01-25T01:28:38.676Z,101741.77
2019-01-25T01:31:15.026Z,101748.56
2019-01-25T01:33:45.331Z,101749.97
2019-01-25T01:36:15.652Z,101740.61
2019-01-25T01:38:46.019Z,101740.86
2019-01-25T01:41:16.331Z,101739.58
2019-01-25T01:43:46.585Z,101745.45
2019-01-25T01:46:16.912Z,101742.63
2019-01-25T01:48:47.118Z,101751.47
2019-01-25T01:51:17.477Z,101752.47
2019-01-25T01:53:47.799Z,101731.83
2019-01-25T01:56:18.100Z,101745.67
2019-01-25T01:58:48.387Z,101745.19
2019-01-25T02:01:18.682Z,101741.47
2019-01-25T02:03:48.972Z,101737.98
2019-01-25T02:06:19.273Z,101741.34
2019-01-25T02:08:54.919Z,101745.86
2019-01-25T02:11:25.300Z,101747.13
2019-01-25T02:13:55.582Z,101736.01
2019-01-25T02:16:25.797Z,101741.48
2019-01-25T02:18:56.220Z,101734.20
2019-01-25T02:21:26.535Z,101733.05
2019-01-25T02:23:56.844Z,101723.23
2019-01-25T02:26:27.134Z,101734.33
2019-01-25T02:28:57.423Z,101723.96
2019-01-25T02:31:27.736Z,101717.16
2019-01-25T02:33:58.024Z,101714.27
2019-01-25T02:36:28.396Z,101714.17
2019-01-25T02:38:58.744Z,101721.34
2019-01-25T02:41:29.061Z,101719.66
2019-01-25T02:43:59.386Z,101714.05
2019-01-25T02:46:29.803Z,101705.36
2019-01-25T02:49:00.034Z,101719.72
2019-01-25T02:51:30.387Z,101716.06
2019-01-25T02:54:00.651Z,101711.30
2019-01-25T02:56:30.861Z,101725.02
2019-01-25T02:59:01.203Z,101713.10
2019-01-25T03:01:31.570Z,101725.63
2019-01-25T03:04:01.949Z,101730.63
2019-01-25T03:06:32.264Z,101727.92
2019-01-25T03:09:02.704Z,101719.17
2019-01-25T03:11:32.927Z,101711.49
2019-01-25T03:14:03.254Z,101711.97
2019-01-25T03:16:33.602Z,101700.52
2019-01-25T03:19:03.852Z,101705.21
2019-01-25T03:21:34.164Z,101703.80
2019-01-25T03:24:04.532Z,101707.92
2019-01-25T03:26:34.927Z,101707.44
2019-01-25T03:29:05.353Z,101707.98
2019-01-25T03:31:37.755Z,101707.52
2019-01-25T03:34:07.733Z,101716.94
2019-01-25T03:36:38.067Z,101715.31
2019-01-25T03:39:12.242Z,101719.16
2019-01-25T03:41:42.650Z,101716.87
2019-01-25T03:44:12.941Z,101711.23
2019-01-25T03:46:43.239Z,101707.44
2019-01-25T03:49:13.633Z,101715.25
2019-01-25T03:51:43.931Z,101712.04
2019-01-25T03:54:14.213Z,101716.55
2019-01-25T03:56:47.980Z,101712.70
2019-01-25T03:59:18.319Z,101706.22
2019-01-25T04:01:48.697Z,101712.09
2019-01-25T04:04:19.059Z,101713.62
2019-01-25T04:06:49.400Z,101701.80
2019-01-25T04:09:19.990Z,101701.17
2019-01-25T04:11:50.517Z,101706.38
2019-01-25T04:14:21.003Z,101714.06
2019-01-25T04:16:51.704Z,101717.90
2019-01-25T04:19:22.071Z,101710.22
2019-01-25T04:21:52.604Z,101713.78
2019-01-25T04:24:23.194Z,101716.47
2019-01-25T04:26:53.564Z,101718.85
2019-01-25T04:29:24.164Z,101718.09
2019-01-25T04:31:54.442Z,101727.54
2019-01-25T04:34:24.781Z,101727.33
2019-01-25T04:36:55.179Z,101730.67
2019-01-25T04:39:25.400Z,101734.39
2019-01-25T04:41:55.734Z,101734.17
2019-01-25T04:44:26.090Z,101740.05
2019-01-25T04:46:56.758Z,101740.58
2019-01-25T04:49:27.328Z,101736.34
2019-01-25T04:51:57.847Z,101727.87
2019-01-25T04:54:28.419Z,101730.16
2019-01-25T04:56:58.962Z,101726.44
2019-01-25T04:59:31.781Z,101722.20
2019-01-25T05:02:02.362Z,101725.16
2019-01-25T05:04:36.819Z,101722.26
2019-01-25T05:07:07.623Z,101726.24
2019-01-25T05:09:41.778Z,101722.85
2019-01-25T05:12:12.130Z,101726.69
2019-01-25T05:14:42.474Z,101719.50
2019-01-25T05:17:12.642Z,101716.45
2019-01-25T05:19:43.171Z,101719.83
2019-01-25T05:22:13.522Z,101718.42
2019-01-25T05:24:43.994Z,101717.27
2019-01-25T05:27:14.295Z,101712.00
2019-01-25T05:29:53.915Z,101716.33
2019-01-25T05:32:24.262Z,101724.89
2019-01-25T05:34:54.630Z,101727.97
2019-01-25T05:37:24.972Z,101730.62
2019-01-25T05:39:55.312Z,101727.18
2019-01-25T05:42:25.664Z,101721.18
2019-01-25T05:44:55.976Z,101714.78
2019-01-25T05:47:26.302Z,101717.34
2019-01-25T05:49:56.489Z,101717.34
2019-01-25T05:52:26.917Z,101721.58
2019-01-25T05:54:57.221Z,101717.21
2019-01-25T05:57:27.593Z,101719.28
2019-01-25T05:59:57.940Z,101729.00
2019-01-25T06:02:28.262Z,101733.36
2019-01-25T06:04:58.694Z,101731.56
2019-01-25T06:07:29.873Z,101731.69
2019-01-25T06:10:01.896Z,101729.25
2019-01-25T06:12:32.217Z,101722.06
2019-01-25T06:15:02.564Z,101719.50
2019-01-25T06:17:33.461Z,101727.18
2019-01-25T06:20:06.381Z,101721.30
2019-01-25T06:22:39.877Z,101716.55
2019-01-25T06:25:10.662Z,101719.50
2019-01-25T06:27:41.446Z,101721.05
2019-01-25T06:30:19.007Z,101712.09
2019-01-25T06:32:49.315Z,101710.05
2019-01-25T06:35:19.613Z,101708.66
2019-01-25T06:37:50.101Z,101705.97
2019-01-25T06:40:20.381Z,101702.70
2019-01-25T06:42:50.750Z,101713.20
2019-01-25T06:45:21.074Z,101708.36
2019-01-25T06:47:52.231Z,101711.28
2019-01-25T06:50:22.401Z,101706.83
2019-01-25T06:52:52.630Z,101712.61
2019-01-25T06:55:22.879Z,101711.73
2019-01-25T06:58:22.031Z,101707.89
2019-01-25T07:00:59.977Z,101707.63
2019-01-25T07:03:30.730Z,101701.49
2019-01-25T07:06:01.012Z,101708.16
2019-01-25T07:08:31.408Z,101695.91
2019-01-25T07:11:01.913Z,101697.19
2019-01-25T07:13:32.363Z,101696.70
2019-01-25T07:16:02.674Z,101704.37
2019-01-25T07:18:32.964Z,101705.38
2019-01-25T07:21:03.342Z,101698.98
2019-01-25T07:23:33.642Z,101706.75
2019-01-25T07:26:04.018Z,101698.06
2019-01-25T07:28:34.260Z,101698.72
2019-01-25T07:31:04.925Z,101697.17
2019-01-25T07:33:35.405Z,101692.76
2019-01-25T07:36:07.247Z,101700.77
2019-01-25T07:38:37.889Z,101708.80
2019-01-25T07:41:08.353Z,101710.42
2019-01-25T07:43:44.889Z,101720.02
2019-01-25T07:46:18.745Z,101719.23
2019-01-25T07:48:51.841Z,101723.69
2019-01-25T07:51:22.177Z,101722.53
2019-01-25T07:53:52.655Z,101728.53
2019-01-25T07:56:23.004Z,101722.75
2019-01-25T07:58:53.333Z,101721.20
2019-01-25T08:01:26.523Z,101719.91
2019-01-25T08:03:59.938Z,101721.32
2019-01-25T08:06:32.936Z,101717.97
2019-01-25T08:09:07.597Z,101713.45
2019-01-25T08:11:40.883Z,101717.03
2019-01-25T08:14:14.068Z,101715.27
2019-01-25T08:16:47.198Z,101716.54
2019-01-25T08:19:22.868Z,101719.31
2019-01-25T08:21:56.286Z,101717.28
2019-01-25T08:24:29.433Z,101717.98
2019-01-25T08:27:02.709Z,101712.03
2019-01-25T08:29:35.954Z,101706.77
2019-01-25T08:32:09.830Z,101711.49
2019-01-25T08:34:40.252Z,101703.26
2019-01-25T08:37:10.690Z,101702.52
2019-01-25T08:39:41.027Z,101694.90
2019-01-25T08:42:15.699Z,101686.66
2019-01-25T08:44:43.656Z,101693.80
2019-01-25T08:47:14.270Z,101688.59
2019-01-25T08:49:44.697Z,101688.49
2019-01-25T08:52:15.049Z,101683.94
2019-01-25T08:54:45.549Z,101674.53
2019-01-25T08:57:16.003Z,101673.20
2019-01-25T08:59:46.373Z,101673.61
2019-01-25T09:02:17.909Z,101663.98
2019-01-25T09:04:48.328Z,101673.80
2019-01-25T09:07:18.898Z,101666.70
2019-01-25T09:09:49.303Z,101669.09
2019-01-25T09:12:23.333Z,101672.75
2019-01-25T09:14:51.725Z,101672.58
2019-01-25T09:17:22.151Z,101683.55
2019-01-25T09:19:52.652Z,101684.80
2019-01-25T09:22:23.109Z,101687.66
2019-01-25T09:24:53.428Z,101687.56
2019-01-25T09:27:23.932Z,101684.20
2019-01-25T09:29:54.244Z,101690.25
2019-01-25T09:32:24.610Z,101687.17
2019-01-25T09:34:54.778Z,101687.37
2019-01-25T09:37:25.222Z,101679.16
2019-01-25T09:39:55.754Z,101674.66
2019-01-25T09:42:30.992Z,101667.30
2019-01-25T09:44:58.080Z,101664.48
2019-01-25T09:47:28.414Z,101655.71
2019-01-25T09:49:58.776Z,101654.73
2019-01-25T09:52:29.010Z,101653.25
2019-01-25T09:54:59.345Z,101655.92
2019-01-25T09:57:29.857Z,101652.82
2019-01-25T10:00:00.236Z,101640.17
2019-01-25T10:02:30.727Z,101647.56
2019-01-25T10:05:01.111Z,101643.05
2019-01-25T10:07:31.556Z,101632.14
2019-01-25T10:10:01.955Z,101640.47
2019-01-25T10:12:36.060Z,101632.95
2019-01-25T10:15:05.051Z,101631.55
2019-01-25T10:17:35.452Z,101620.48
2019-01-25T10:20:07.755Z,101619.34
2019-01-25T10:22:38.156Z,101614.19
2019-01-25T10:25:09.757Z,101613.50
2019-01-25T10:27:40.101Z,101615.99
2019-01-25T10:30:14.892Z,101604.67
2019-01-25T10:32:45.143Z,101612.48
2019-01-25T10:35:15.471Z,101601.81
2019-01-25T10:37:46.144Z,101595.97
2019-01-25T10:40:23.053Z,101589.07
2019-01-25T10:42:53.828Z,101593.58
2019-01-25T10:45:33.651Z,101602.09
2019-01-25T10:48:03.915Z,101592.78
2019-01-25T10:50:34.283Z,101599.30
2019-01-25T10:53:06.406Z,101601.69
2019-01-25T10:55:36.955Z,101592.80
2019-01-25T10:58:10.575Z,101586.94
2019-01-25T11:00:40.997Z,101594.62
2019-01-25T11:03:11.288Z,101584.31
2019-01-25T11:05:41.697Z,101579.73
2019-01-25T11:08:12.055Z,101571.75
2019-01-25T11:10:42.380Z,101558.79
2019-01-25T11:13:12.782Z,101556.14
2019-01-25T11:15:43.009Z,101545.10
2019-01-25T11:18:13.406Z,101551.94
2019-01-25T11:20:43.654Z,101558.44
2019-01-25T11:23:13.992Z,101562.84
2019-01-25T11:25:44.354Z,101559.47
2019-01-25T11:28:14.598Z,101555.10
2019-01-25T11:30:45.042Z,101558.22
2019-01-25T11:33:15.304Z,101556.19
2019-01-25T11:35:45.574Z,101550.08
2019-01-25T11:38:15.874Z,101537.02
2019-01-25T11:40:46.471Z,101521.02
2019-01-25T11:43:16.805Z,101528.80
2019-01-25T11:45:47.232Z,101528.84
2019-01-25T11:48:17.535Z,101519.36
2019-01-25T11:50:47.753Z,101516.13
2019-01-25T11:53:17.976Z,101502.91
2019-01-25T11:55:48.336Z,101504.79
2019-01-25T11:58:18.637Z,101500.08
2019-01-25T12:00:50.426Z,101495.16
2019-01-25T12:03:20.905Z,101481.56
2019-01-25T12:05:51.199Z,101485.83
2019-01-25T12:08:22.431Z,101480.25
2019-01-25T12:10:52.711Z,101480.89
2019-01-25T12:13:23.023Z,101484.77
2019-01-25T12:15:53.340Z,101463.17
2019-01-25T12:18:23.751Z,101456.41
2019-01-25T12:20:54.140Z,101453.09
2019-01-25T12:23:24.548Z,101450.92
2019-01-25T12:25:54.864Z,101437.88
2019-01-25T12:28:25.206Z,101404.62
2019-01-25T12:30:55.496Z,101423.31
2019-01-25T12:33:25.782Z,101410.64
2019-01-25T12:35:56.323Z,101414.42
2019-01-25T12:38:26.651Z,101410.00
2019-01-25T12:40:56.974Z,101403.81
2019-01-25T12:43:27.276Z,101405.33
2019-01-25T12:45:57.661Z,101397.13
2019-01-25T12:48:28.051Z,101394.05
2019-01-25T12:51:08.656Z,101395.42
2019-01-25T12:53:38.976Z,101387.37
2019-01-25T12:56:09.502Z,101388.80
2019-01-25T12:58:49.142Z,101377.79
2019-01-25T13:01:21.151Z,101386.25
2019-01-25T13:03:51.507Z,101380.03
2019-01-25T13:06:21.872Z,101374.83
2019-01-25T13:08:52.231Z,101359.60
2019-01-25T13:11:22.646Z,101360.39
2019-01-25T13:13:52.986Z,101355.33
2019-01-25T13:16:23.244Z,101360.30
2019-01-25T13:18:53.490Z,101343.81
2019-01-25T13:21:23.805Z,101338.25
2019-01-25T13:23:54.121Z,101322.55
2019-01-25T13:26:24.609Z,101309.91
2019-01-25T13:28:54.826Z,101311.58
2019-01-25T13:31:25.337Z,101303.84
2019-01-25T13:33:55.577Z,101315.94
2019-01-25T13:36:27.617Z,101309.81
2019-01-25T13:38:57.953Z,101300.33
2019-01-25T13:41:28.262Z,101297.05
2019-01-25T13:43:58.563Z,101298.06
2019-01-25T13:46:28.922Z,101298.89
2019-01-25T13:48:59.321Z,101298.71
2019-01-25T13:51:29.717Z,101288.41
2019-01-25T13:54:00.123Z,101288.91
2019-01-25T13:56:30.374Z,101283.98
2019-01-25T13:59:00.687Z,101284.55
2019-01-25T14:01:34.769Z,101285.54
2019-01-25T14:04:04.199Z,101286.97
2019-01-25T14:06:34.542Z,101275.69
2019-01-25T14:09:07.755Z,101263.63
2019-01-25T14:11:40.840Z,101257.05
2019-01-25T14:14:11.106Z,101244.48
2019-01-25T14:16:41.655Z,101242.87
2019-01-25T14:19:12.025Z,101235.88
2019-01-25T14:21:42.291Z,101241.28
2019-01-25T14:24:16.459Z,101242.71
2019-01-25T14:26:44.657Z,101242.24
2019-01-25T14:29:15.028Z,101234.20
2019-01-25T14:31:45.338Z,101226.81
2019-01-25T14:34:21.883Z,101224.70
2019-01-25T14:36:56.388Z,101225.52
2019-01-25T14:39:24.274Z,101229.94
2019-01-25T14:41:54.643Z,101219.55
2019-01-25T14:44:25.105Z,101214.72
2019-01-25T14:46:58.246Z,101204.65
2019-01-25T14:49:28.642Z,101209.89
2019-01-25T14:52:04.127Z,101204.98
2019-01-25T14:54:34.443Z,101209.89
2019-01-25T14:57:04.810Z,101210.36
2019-01-25T14:59:35.076Z,101206.09
2019-01-25T15:02:05.683Z,101189.70
2019-01-25T15:04:36.056Z,101187.92
2019-01-25T15:07:07.218Z,101178.82
2019-01-25T15:09:38.116Z,101173.61
2019-01-25T15:12:08.587Z,101176.42
2019-01-25T15:14:41.130Z,101165.30
2019-01-25T15:17:11.596Z,101155.00
2019-01-25T15:19:41.873Z,101144.65
2019-01-25T15:22:12.381Z,101143.73
2019-01-25T15:24:42.648Z,101145.20
2019-01-25T15:27:13.101Z,101149.39
2019-01-25T15:29:44.856Z,101142.13
2019-01-25T15:32:15.151Z,101142.63
2019-01-25T15:34:45.595Z,101138.35
2019-01-25T15:37:15.955Z,101124.28
2019-01-25T15:39:47.014Z,101119.18
2019-01-25T15:42:17.356Z,101118.80
2019-01-25T15:44:47.787Z,101112.83
2019-01-25T15:47:18.100Z,101104.14
2019-01-25T15:49:48.393Z,101087.41
2019-01-25T15:52:18.648Z,101091.77
2019-01-25T15:54:50.735Z,101096.09
2019-01-25T15:57:21.040Z,101094.80
2019-01-25T15:59:51.419Z,101082.48
2019-01-25T16:02:24.711Z,101069.14
2019-01-25T16:04:54.968Z,101070.56
2019-01-25T16:07:25.285Z,101063.39
2019-01-25T16:09:56.854Z,101063.06
2019-01-25T16:12:27.214Z,101052.02
2019-01-25T16:14:57.638Z,101035.83
2019-01-25T16:17:28.024Z,101032.05
2019-01-25T16:19:58.426Z,101027.11
2019-01-25T16:22:28.809Z,101019.05
2019-01-25T16:24:59.016Z,101019.69
2019-01-25T16:27:29.320Z,101025.84
2019-01-25T16:30:01.029Z,101016.83
2019-01-25T16:32:31.305Z,101008.52
2019-01-25T16:35:05.811Z,101009.47
2019-01-25T16:37:36.210Z,100991.56
2019-01-25T16:40:10.754Z,100986.08
2019-01-25T16:42:41.183Z,100991.86
2019-01-25T16:45:37.656Z,100993.77
2019-01-25T16:48:08.246Z,100996.47
2019-01-25T16:50:40.028Z,100989.41
2019-01-25T16:53:13.110Z,100995.60
2019-01-25T16:55:43.945Z,100988.91
2019-01-25T16:58:14.296Z,100979.59
2019-01-25T17:00:49.417Z,100971.06
2019-01-25T17:03:19.906Z,100969.15
2019-01-25T17:05:50.345Z,100967.27
2019-01-25T17:08:20.707Z,100957.91
2019-01-25T17:10:51.181Z,100949.80
2019-01-25T17:13:21.482Z,100944.79
2019-01-25T17:15:52.629Z,100939.75
2019-01-25T17:18:23.949Z,100924.89
2019-01-25T17:20:54.315Z,100920.76
2019-01-25T17:23:24.628Z,100924.48
2019-01-25T17:25:54.916Z,100925.13
2019-01-25T17:28:25.306Z,100915.88
2019-01-25T17:30:55.737Z,100923.02
2019-01-25T17:33:26.200Z,100904.27
2019-01-25T17:35:56.545Z,100897.92
2019-01-25T17:38:26.847Z,100889.35
2019-01-25T17:40:57.181Z,100883.16
2019-01-25T17:43:28.599Z,100890.22
2019-01-25T17:45:58.873Z,100886.59
2019-01-25T17:48:29.188Z,100875.97
2019-01-25T17:50:59.567Z,100877.44
2019-01-25T17:53:30.000Z,100875.00
2019-01-25T17:56:00.432Z,100862.66
2019-01-25T17:58:30.798Z,100860.21
2019-01-25T18:01:01.125Z,100852.92
2019-01-25T18:03:31.488Z,100853.06
2019-01-25T18:06:01.933Z,100845.53
2019-01-25T18:08:32.357Z,100833.14
2019-01-25T18:11:02.802Z,100833.28
2019-01-25T18:13:33.092Z,100821.77
2019-01-25T18:16:03.473Z,100825.28
2019-01-25T18:18:33.867Z,100821.48
2019-01-25T18:21:04.314Z,100830.16
2019-01-25T18:23:34.634Z,100837.08
2019-01-25T18:26:14.961Z,100828.52
2019-01-25T18:29:00.492Z,100822.09
2019-01-25T18:31:32.423Z,100817.42
2019-01-25T18:34:02.851Z,100812.29
2019-01-25T18:36:33.336Z,100804.67
2019-01-25T18:39:06.004Z,100809.13
2019-01-25T18:44:18.203Z,100805.79
2019-01-25T18:48:15.410Z,100805.23
2019-01-25T18:50:51.822Z,100803.56
2019-01-25T18:53:32.845Z,100807.08
2019-01-25T18:56:17.714Z,100804.27
2019-01-25T19:01:48.867Z,100801.88
2019-01-25T19:04:33.297Z,100794.26
2019-01-25T19:07:21.555Z,100779.33
2019-01-25T19:09:55.416Z,100786.34
2019-01-25T19:12:25.858Z,100774.34
2019-01-25T19:15:04.113Z,100758.03
2019-01-25T19:17:29.317Z,100761.48
2019-01-25T19:19:59.736Z,100758.99
2019-01-25T19:22:40.710Z,100757.34
2019-01-25T19:25:09.285Z,100755.75
2019-01-25T19:27:39.684Z,100754.55
2019-01-25T19:30:23.837Z,100749.89
2019-01-25T19:32:54.238Z,100742.28
2019-01-25T19:35:24.749Z,100741.47
2019-01-25T19:37:55.459Z,100736.88
2019-01-25T19:40:37.877Z,100731.01
2019-01-25T19:45:48.720Z,100728.99
2019-01-25T19:48:19.110Z,100738.55
2019-01-25T19:50:49.530Z,100741.71
2019-01-25T19:53:39.141Z,100737.89
2019-01-25T19:56:09.538Z,100629.47
2019-01-25T19:58:39.955Z,100731.93
2019-01-25T20:01:10.447Z,100729.84
2019-01-25T20:03:40.867Z,100728.98
2019-01-25T20:06:13.557Z,100720.01
2019-01-25T20:22:34.093Z,100726.38
2019-01-25T20:25:05.066Z,100717.55
2019-01-25T20:27:38.300Z,100723.89
2019-01-25T20:30:13.701Z,100719.94
2019-01-25T20:32:44.140Z,100715.13
2019-01-25T20:35:17.844Z,100709.44
2019-01-25T20:37:48.242Z,100714.48
2019-01-25T20:40:18.620Z,100707.08
2019-01-25T20:42:49.044Z,100709.67
2019-01-25T20:45:27.309Z,100711.84
2019-01-25T20:47:55.590Z,100691.05
2019-01-25T20:50:28.358Z,100693.72
2019-01-25T20:52:59.228Z,100690.31
2019-01-25T20:55:31.308Z,100696.36
2019-01-25T20:58:02.406Z,100701.06
2019-01-25T21:00:35.485Z,100704.58
2019-01-25T21:03:12.268Z,100698.16
2019-01-25T21:05:42.652Z,100702.55
2019-01-25T21:08:13.256Z,100712.09
2019-01-25T21:10:43.763Z,100714.25
2019-01-25T21:13:15.676Z,100703.05
2019-01-25T21:15:47.193Z,100703.52
2019-01-25T21:18:17.708Z,100713.45
2019-01-25T21:20:53.636Z,100708.33
2019-01-25T21:23:24.241Z,100707.98
2019-01-25T21:25:54.765Z,100705.88
2019-01-25T21:28:25.251Z,100699.03
2019-01-25T21:30:55.720Z,100700.77
2019-01-25T21:33:26.800Z,100699.16
2019-01-25T21:35:59.269Z,100690.98
2019-01-25T21:38:29.318Z,100705.77
2019-01-25T21:40:59.854Z,100708.44
2019-01-25T21:43:30.283Z,100712.38
2019-01-25T21:46:00.738Z,100702.95
2019-01-25T21:48:31.181Z,100697.03
2019-01-25T21:51:01.600Z,100699.70
2019-01-25T21:53:31.998Z,100694.25
2019-01-25T21:56:02.528Z,100705.16
2019-01-25T21:58:35.403Z,100706.53
2019-01-25T22:01:07.517Z,100704.86
2019-01-25T22:03:37.874Z,100704.51
2019-01-25T22:06:08.269Z,100700.23
2019-01-25T22:08:42.738Z,100704.63
2019-01-25T22:11:13.230Z,100706.47
2019-01-25T22:13:43.657Z,100702.70
2019-01-25T22:16:14.066Z,100698.92
2019-01-25T22:18:44.367Z,100702.93
2019-01-25T22:21:14.824Z,100703.05
2019-01-25T22:23:45.261Z,100707.45
2019-01-25T22:26:15.742Z,100717.50
2019-01-25T22:28:46.214Z,100711.06
2019-01-25T22:31:16.555Z,100719.34
2019-01-25T22:33:47.169Z,100731.55
2019-01-25T22:36:17.585Z,100735.06
2019-01-25T22:38:50.762Z,100726.48
2019-01-25T22:41:21.171Z,100727.02
2019-01-25T22:43:51.689Z,100722.33
2019-01-25T22:46:22.193Z,100720.66
2019-01-25T22:48:52.654Z,100720.23
2019-01-25T22:51:23.097Z,100724.17
2019-01-25T22:53:55.510Z,100728.95
2019-01-25T22:56:25.935Z,100733.31
2019-01-25T22:58:56.481Z,100732.02
2019-01-25T23:01:35.394Z,100725.53
2019-01-25T23:05:00.643Z,100728.17
2019-01-25T23:07:33.041Z,100721.64
2019-01-25T23:10:23.256Z,100721.58
2019-01-25T23:12:53.518Z,100723.76
2019-01-25T23:15:23.989Z,100709.48
2019-01-25T23:17:54.403Z,100707.75
2019-01-25T23:20:24.858Z,100699.52
2019-01-25T23:22:55.290Z,100694.35
2019-01-25T23:25:25.656Z,100685.70
2019-01-25T23:27:56.132Z,100678.36
2019-01-25T23:30:28.742Z,100674.89
2019-01-25T23:32:59.213Z,100680.13
2019-01-25T23:35:29.621Z,100683.64
2019-01-25T23:37:59.976Z,100697.11
2019-01-25T23:40:30.375Z,100695.86
2019-01-25T23:43:04.516Z,100686.84
2019-01-25T23:45:34.940Z,100690.34
2019-01-25T23:48:05.479Z,100684.29
2019-01-25T23:50:35.807Z,100687.38
2019-01-25T23:53:06.813Z,100693.88
2019-01-25T23:55:37.258Z,100696.56
2019-01-25T23:58:07.668Z,100702.24
